createdAt,value
2022-08-09T00:00:00.245Z,27.06
2022-08-09T00:02:28.983Z,27.09
2022-08-09T00:05:03.556Z,27.21
2022-08-09T00:07:44.562Z,27.18
2022-08-09T00:10:17.304Z,27.03
2022-08-09T00:12:52.683Z,27.07
2022-08-09T00:15:35.286Z,26.99
2022-08-09T00:18:11.295Z,26.97
2022-08-09T00:20:42.467Z,27.14
2022-08-09T00:23:55.083Z,27.11
2022-08-09T00:26:05.982Z,27.21
2022-08-09T00:28:34.605Z,27.15
2022-08-09T00:31:30.489Z,27.08
2022-08-09T00:33:51.960Z,27.15
2022-08-09T00:36:19.639Z,27.29
2022-08-09T00:38:46.760Z,27.26
2022-08-09T00:44:15.996Z,27.09
2022-08-09T00:44:20.251Z,27.10
2022-08-09T00:46:57.292Z,27.19
2022-08-09T00:49:32.154Z,27.12
2022-08-09T00:52:02.186Z,27.15
2022-08-09T00:54:36.348Z,27.05
2022-08-09T00:57:08.906Z,27.09
2022-08-09T00:59:41.241Z,27.14
2022-08-09T01:02:15.837Z,27.03
2022-08-09T01:04:55.218Z,27.09
2022-08-09T01:07:37.899Z,26.94
2022-08-09T01:10:21.701Z,27.06
2022-08-09T01:12:53.038Z,27.00
2022-08-09T01:15:22.499Z,26.94
2022-08-09T01:17:56.762Z,26.89
2022-08-09T01:20:32.338Z,26.85
2022-08-09T01:24:01.292Z,26.89
2022-08-09T01:26:08.459Z,26.89
2022-08-09T01:28:38.423Z,26.95
2022-08-09T01:31:06.334Z,26.84
2022-08-09T01:33:37.066Z,26.80
2022-08-09T01:36:07.155Z,26.69
2022-08-09T01:38:40.684Z,26.63
2022-08-09T01:41:16.226Z,26.73
2022-08-09T01:43:54.997Z,26.61
2022-08-09T01:46:26.458Z,26.64
2022-08-09T01:48:56.422Z,26.65
2022-08-09T01:51:26.151Z,26.60
2022-08-09T01:53:57.965Z,26.61
2022-08-09T01:56:26.694Z,26.59
2022-08-09T01:58:55.307Z,26.46
2022-08-09T02:01:58.390Z,26.47
2022-08-09T02:04:11.366Z,26.46
2022-08-09T02:07:01.999Z,26.47
2022-08-09T02:09:42.327Z,26.50
2022-08-09T02:12:18.010Z,26.48
2022-08-09T02:14:52.046Z,26.54
2022-08-09T02:18:01.382Z,26.45
2022-08-09T02:20:09.370Z,26.40
2022-08-09T02:22:38.108Z,26.54
2022-08-09T02:25:10.110Z,26.33
2022-08-09T02:27:57.755Z,26.31
2022-08-09T02:30:30.211Z,26.29
2022-08-09T02:32:59.478Z,26.35
2022-08-09T02:36:01.605Z,26.38
2022-08-09T02:38:27.853Z,26.38
2022-08-09T02:40:59.176Z,26.41
2022-08-09T02:43:29.060Z,26.29
2022-08-09T02:45:57.263Z,26.24
2022-08-09T02:48:31.095Z,26.23
2022-08-09T02:51:01.800Z,26.23
2022-08-09T02:53:34.302Z,26.07
2022-08-09T02:56:02.748Z,26.18
2022-08-09T02:58:35.286Z,26.00
2022-08-09T03:01:06.025Z,25.97
2022-08-09T03:03:37.208Z,25.95
2022-08-09T03:06:22.837Z,25.89
2022-08-09T03:08:53.169Z,25.92
2022-08-09T03:12:04.379Z,25.88
2022-08-09T03:14:10.247Z,25.70
2022-08-09T03:16:41.609Z,25.65
2022-08-09T03:19:52.836Z,25.66
2022-08-09T03:21:59.923Z,25.65
2022-08-09T03:24:31.636Z,25.58
2022-08-09T03:27:21.404Z,25.50
2022-08-09T03:29:57.760Z,25.48
2022-08-09T03:32:32.331Z,25.49
2022-08-09T03:35:00.388Z,25.60
2022-08-09T03:37:56.158Z,25.56
2022-08-09T03:40:18.037Z,25.51
2022-08-09T03:42:45.820Z,25.49
2022-08-09T03:45:13.972Z,25.43
2022-08-09T03:47:44.105Z,25.60
2022-08-09T03:50:18.813Z,25.42
2022-08-09T03:52:57.631Z,25.35
2022-08-09T03:55:25.317Z,25.33
2022-08-09T03:58:09.774Z,25.42
2022-08-09T04:00:41.829Z,25.49
2022-08-09T04:03:11.885Z,25.34
2022-08-09T04:05:46.870Z,25.21
2022-08-09T04:08:14.059Z,25.18
2022-08-09T04:10:44.222Z,25.15
2022-08-09T04:13:18.517Z,25.17
2022-08-09T04:16:18.580Z,25.27
2022-08-09T04:18:33.182Z,25.13
2022-08-09T04:21:00.719Z,25.19
2022-08-09T04:23:27.897Z,25.24
2022-08-09T04:25:55.583Z,25.16
2022-08-09T04:28:34.294Z,25.15
2022-08-09T04:31:05.654Z,25.06
2022-08-09T04:33:51.708Z,25.09
2022-08-09T04:36:30.426Z,25.09
2022-08-09T04:38:59.476Z,25.09
2022-08-09T04:41:32.153Z,25.07
2022-08-09T04:44:06.467Z,25.10
2022-08-09T04:46:56.934Z,25.11
2022-08-09T04:49:40.122Z,25.21
2022-08-09T04:52:12.011Z,25.26
2022-08-09T04:54:48.109Z,25.15
2022-08-09T04:57:15.315Z,25.01
2022-08-09T04:59:50.340Z,25.02
2022-08-09T05:02:17.530Z,25.05
2022-08-09T05:04:47.379Z,25.09
2022-08-09T05:07:19.284Z,25.01
2022-08-09T05:09:49.734Z,25.09
2022-08-09T05:12:17.298Z,25.14
2022-08-09T05:14:44.428Z,25.26
2022-08-09T05:18:36.820Z,25.36
2022-08-09T05:19:59.120Z,25.41
2022-08-09T05:22:35.078Z,25.42
2022-08-09T05:25:15.195Z,25.63
2022-08-09T05:27:46.517Z,25.55
2022-08-09T05:30:15.394Z,25.74
2022-08-09T05:32:45.453Z,25.77
2022-08-09T05:35:22.067Z,25.75
2022-08-09T05:37:50.135Z,25.81
2022-08-09T05:40:18.386Z,25.92
2022-08-09T05:42:45.976Z,26.09
2022-08-09T05:45:14.319Z,26.08
2022-08-09T05:47:45.560Z,26.17
2022-08-09T05:50:26.883Z,26.20
2022-08-09T05:53:02.590Z,26.31
2022-08-09T05:55:31.379Z,26.19
2022-08-09T05:57:58.854Z,26.35
2022-08-09T06:00:28.874Z,26.42
2022-08-09T06:03:00.485Z,26.51
2022-08-09T06:05:50.288Z,26.38
2022-08-09T06:08:19.363Z,26.25
2022-08-09T06:10:52.499Z,26.16
2022-08-09T06:13:20.567Z,26.18
2022-08-09T06:15:51.342Z,26.28
2022-08-09T06:18:20.928Z,26.45
2022-08-09T06:20:54.757Z,26.47
2022-08-09T06:23:58.856Z,26.58
2022-08-09T06:26:20.047Z,26.93
2022-08-09T06:29:01.083Z,27.11
2022-08-09T06:31:39.352Z,26.97
2022-08-09T06:34:22.721Z,27.37
2022-08-09T06:36:58.992Z,27.92
2022-08-09T06:39:48.275Z,28.03
2022-08-09T06:42:20.153Z,28.36
2022-08-09T06:44:54.558Z,29.00
2022-08-09T06:47:22.355Z,29.57
2022-08-09T06:50:13.757Z,28.86
2022-08-09T06:52:45.760Z,28.63
2022-08-09T06:55:18.328Z,28.43
2022-08-09T06:58:02.917Z,28.07
2022-08-09T07:00:54.166Z,28.36
2022-08-09T07:03:28.528Z,28.61
2022-08-09T07:06:04.555Z,28.05
2022-08-09T07:08:33.121Z,27.59
2022-08-09T07:11:03.476Z,27.67
2022-08-09T07:13:31.118Z,27.60
2022-08-09T07:16:42.295Z,27.70
2022-08-09T07:18:59.945Z,27.95
2022-08-09T07:21:27.098Z,28.48
2022-08-09T07:23:58.571Z,28.39
2022-08-09T07:26:26.007Z,28.22
2022-08-09T07:29:09.007Z,28.33
2022-08-09T07:31:45.485Z,28.52
2022-08-09T07:34:20.795Z,28.69
2022-08-09T07:36:49.429Z,28.52
2022-08-09T07:39:19.856Z,29.01
2022-08-09T07:41:48.150Z,29.44
2022-08-09T07:44:15.611Z,29.55
2022-08-09T07:46:51.262Z,29.19
2022-08-09T07:49:19.319Z,28.82
2022-08-09T07:52:05.485Z,29.40
2022-08-09T07:54:35.314Z,29.42
2022-08-09T07:57:04.012Z,29.67
2022-08-09T07:59:45.970Z,29.81
2022-08-09T08:02:23.239Z,29.53
2022-08-09T08:04:53.827Z,29.85
2022-08-09T08:08:42.801Z,29.85
2022-08-09T08:10:10.815Z,30.00
2022-08-09T08:12:43.201Z,30.87
2022-08-09T08:15:11.671Z,30.40
2022-08-09T08:17:53.674Z,30.75
2022-08-09T08:20:29.065Z,30.91
2022-08-09T08:23:16.409Z,30.62
2022-08-09T08:25:49.920Z,30.27
2022-08-09T08:28:25.630Z,30.43
2022-08-09T08:31:04.695Z,30.63
2022-08-09T08:33:52.527Z,31.22
2022-08-09T08:36:28.768Z,30.62
2022-08-09T08:38:57.126Z,30.38
2022-08-09T08:41:24.522Z,30.71
2022-08-09T08:44:10.998Z,30.94
2022-08-09T08:46:59.837Z,31.05
2022-08-09T08:49:38.478Z,31.45
2022-08-09T08:52:57.566Z,31.55
2022-08-09T08:55:10.254Z,31.05
2022-08-09T08:57:37.997Z,30.76
2022-08-09T09:00:12.791Z,30.80
2022-08-09T09:02:50.044Z,30.55
2022-08-09T09:05:57.810Z,30.94
2022-08-09T09:08:30.142Z,31.06
2022-08-09T09:11:03.831Z,31.62
2022-08-09T09:13:54.794Z,31.88
2022-08-09T09:16:30.931Z,31.77
2022-08-09T09:22:04.346Z,31.86
2022-08-09T09:24:34.720Z,31.64
2022-08-09T09:27:02.791Z,32.01
2022-08-09T09:32:36.614Z,32.23
2022-08-09T09:35:09.591Z,32.35
2022-08-09T09:37:40.526Z,32.77
2022-08-09T09:40:09.233Z,32.83
2022-08-09T09:42:36.501Z,33.01
2022-08-09T09:45:06.526Z,32.68
2022-08-09T09:47:47.715Z,32.64
2022-08-09T09:50:39.432Z,32.73
2022-08-09T09:53:21.064Z,32.83
2022-08-09T09:56:06.138Z,32.97
2022-08-09T09:58:46.128Z,33.15
2022-08-09T10:01:31.450Z,33.05
2022-08-09T10:04:12.847Z,32.89
2022-08-09T10:06:47.253Z,33.22
2022-08-09T10:09:22.301Z,33.47
2022-08-09T10:12:12.941Z,33.48
2022-08-09T10:14:51.719Z,33.28
2022-08-09T10:17:50.945Z,33.22
2022-08-09T10:20:15.057Z,32.93
2022-08-09T10:22:42.751Z,32.94
2022-08-09T10:25:12.157Z,33.50
2022-08-09T10:27:55.880Z,34.11
2022-08-09T10:34:08.076Z,34.26
2022-08-09T10:36:02.189Z,33.50
2022-08-09T10:38:54.476Z,33.81
2022-08-09T10:41:17.924Z,34.14
2022-08-09T10:43:59.634Z,33.89
2022-08-09T10:46:31.915Z,34.18
2022-08-09T10:49:08.099Z,34.49
2022-08-09T10:51:43.614Z,34.19
2022-08-09T10:54:13.208Z,34.26
2022-08-09T10:56:41.756Z,33.85
2022-08-09T10:59:31.217Z,33.65
2022-08-09T11:03:13.150Z,33.88
2022-08-09T11:05:06.562Z,34.09
2022-08-09T11:07:58.427Z,33.78
2022-08-09T11:10:40.963Z,33.90
2022-08-09T11:13:49.115Z,34.21
2022-08-09T11:16:35.411Z,34.08
2022-08-09T11:19:09.605Z,34.28
2022-08-09T11:21:55.210Z,34.15
2022-08-09T11:24:51.841Z,34.46
2022-08-09T11:28:02.985Z,34.26
2022-08-09T11:30:37.650Z,34.26
2022-08-09T11:33:08.309Z,34.66
2022-08-09T11:35:49.299Z,35.21
2022-08-09T11:38:17.684Z,34.89
2022-08-09T11:40:45.650Z,34.73
2022-08-09T11:43:25.349Z,34.65
2022-08-09T11:45:55.301Z,34.58
2022-08-09T11:48:27.634Z,34.60
2022-08-09T11:52:57.122Z,34.60
2022-08-09T11:54:00.766Z,34.06
2022-08-09T11:56:42.567Z,34.53
2022-08-09T11:59:30.254Z,34.51
2022-08-09T12:02:34.430Z,34.80
2022-08-09T12:04:50.904Z,35.20
2022-08-09T12:07:29.076Z,34.88
2022-08-09T12:10:32.046Z,34.68
2022-08-09T12:12:56.873Z,34.59
2022-08-09T12:15:49.264Z,34.23
2022-08-09T12:18:17.990Z,34.58
2022-08-09T12:20:59.132Z,34.77
2022-08-09T12:23:58.069Z,34.13
2022-08-09T12:26:25.560Z,34.67
2022-08-09T12:29:14.886Z,34.95
2022-08-09T12:31:59.207Z,35.07
2022-08-09T12:34:35.967Z,34.88
2022-08-09T12:37:22.243Z,35.15
2022-08-09T12:40:05.627Z,35.04
2022-08-09T12:42:33.692Z,34.78
2022-08-09T12:45:01.870Z,34.93
2022-08-09T12:47:37.604Z,34.54
2022-08-09T12:50:19.851Z,34.55
2022-08-09T12:53:08.934Z,34.39
2022-08-09T12:56:15.025Z,33.65
2022-08-09T12:58:28.282Z,33.47
2022-08-09T13:00:56.242Z,33.83
2022-08-09T13:03:28.450Z,34.08
2022-08-09T13:06:24.448Z,34.41
2022-08-09T13:08:58.493Z,34.32
2022-08-09T13:11:29.218Z,34.35
2022-08-09T13:14:41.542Z,34.17
2022-08-09T13:16:45.931Z,33.97
2022-08-09T13:20:06.853Z,34.21
2022-08-09T13:22:35.668Z,33.70
2022-08-09T13:25:07.839Z,34.13
2022-08-09T13:27:55.416Z,34.14
2022-08-09T13:30:50.692Z,34.33
2022-08-09T13:33:16.878Z,34.46
2022-08-09T13:36:39.758Z,34.31
2022-08-09T13:38:57.752Z,34.37
2022-08-09T13:41:59.352Z,34.51
2022-08-09T13:44:16.627Z,34.53
2022-08-09T13:47:26.616Z,34.65
2022-08-09T13:49:37.429Z,34.54
2022-08-09T13:52:09.362Z,34.41
2022-08-09T13:54:43.134Z,34.50
2022-08-09T13:57:36.269Z,34.20
2022-08-09T14:00:06.922Z,34.41
2022-08-09T14:02:42.869Z,34.41
2022-08-09T14:06:00.247Z,34.23
2022-08-09T14:08:13.031Z,34.08
2022-08-09T14:10:49.125Z,33.87
2022-08-09T14:13:28.063Z,33.94
2022-08-09T14:16:11.309Z,34.21
2022-08-09T14:18:45.368Z,34.37
2022-08-09T14:21:17.557Z,34.40
2022-08-09T14:23:53.877Z,34.08
2022-08-09T14:26:25.307Z,34.45
2022-08-09T14:28:52.977Z,34.20
2022-08-09T14:31:20.105Z,34.25
2022-08-09T14:33:54.668Z,33.94
2022-08-09T14:36:22.057Z,33.65
2022-08-09T14:38:52.450Z,33.84
2022-08-09T14:41:24.052Z,33.76
2022-08-09T14:44:02.818Z,33.58
2022-08-09T14:46:57.491Z,33.73
2022-08-09T14:49:18.618Z,33.68
2022-08-09T14:51:51.279Z,33.49
2022-08-09T14:54:27.506Z,33.61
2022-08-09T14:56:58.259Z,33.60
2022-08-09T14:59:27.439Z,33.38
2022-08-09T15:01:56.087Z,33.17
2022-08-09T15:04:23.887Z,33.19
2022-08-09T15:06:51.951Z,32.73
2022-08-09T15:10:03.717Z,32.89
2022-08-09T15:12:07.695Z,33.13
2022-08-09T15:14:38.673Z,33.13
2022-08-09T15:17:09.587Z,32.96
2022-08-09T15:19:54.638Z,33.08
2022-08-09T15:22:25.955Z,33.10
2022-08-09T15:24:53.844Z,33.16
2022-08-09T15:27:21.942Z,33.29
2022-08-09T15:30:55.476Z,33.16
2022-08-09T15:32:36.614Z,33.05
2022-08-09T15:35:40.113Z,32.80
2022-08-09T15:37:56.601Z,32.81
2022-08-09T15:40:43.848Z,32.84
2022-08-09T15:43:13.707Z,33.06
2022-08-09T15:45:51.964Z,32.97
2022-08-09T15:48:31.686Z,32.75
2022-08-09T15:50:59.819Z,32.52
2022-08-09T15:54:05.276Z,32.58
2022-08-09T15:56:23.326Z,32.58
2022-08-09T15:58:56.966Z,32.71
2022-08-09T16:01:24.111Z,32.61
2022-08-09T16:03:51.283Z,32.57
2022-08-09T16:06:35.893Z,32.68
2022-08-09T16:09:05.752Z,32.85
2022-08-09T16:11:33.781Z,32.78
2022-08-09T16:14:06.979Z,32.68
2022-08-09T16:16:36.969Z,32.67
2022-08-09T16:19:08.728Z,32.69
2022-08-09T16:21:36.963Z,32.72
2022-08-09T16:24:05.089Z,32.76
2022-08-09T16:26:36.667Z,32.79
2022-08-09T16:29:10.782Z,32.70
2022-08-09T16:32:19.794Z,32.73
2022-08-09T16:34:54.930Z,32.55
2022-08-09T16:37:18.550Z,32.39
2022-08-09T16:39:54.546Z,32.43
2022-08-09T16:42:32.744Z,32.26
2022-08-09T16:44:59.856Z,32.19
2022-08-09T16:48:38.344Z,31.95
2022-08-09T16:50:32.281Z,32.03
2022-08-09T16:53:01.848Z,31.92
2022-08-09T16:55:44.290Z,31.86
2022-08-09T16:58:17.035Z,31.96
2022-08-09T17:00:46.478Z,31.84
2022-08-09T17:03:22.130Z,31.72
2022-08-09T17:06:07.903Z,31.68
2022-08-09T17:08:46.924Z,31.52
2022-08-09T17:11:40.781Z,31.56
2022-08-09T17:14:25.821Z,31.50
2022-08-09T17:16:56.039Z,31.34
2022-08-09T17:19:23.159Z,31.35
2022-08-09T17:21:54.735Z,31.37
2022-08-09T17:24:30.549Z,31.27
2022-08-09T17:26:58.419Z,31.17
2022-08-09T17:29:31.546Z,31.15
2022-08-09T17:32:01.810Z,31.32
2022-08-09T17:35:01.943Z,31.15
2022-08-09T17:37:19.421Z,30.96
2022-08-09T17:39:52.096Z,30.91
2022-08-09T17:42:41.977Z,30.73
2022-08-09T17:45:15.964Z,30.65
2022-08-09T17:47:54.720Z,30.58
2022-08-09T17:50:36.279Z,30.63
2022-08-09T17:53:19.387Z,30.57
2022-08-09T17:55:51.996Z,30.41
2022-08-09T17:58:26.929Z,30.37
2022-08-09T18:00:56.554Z,30.31
2022-08-09T18:03:26.083Z,30.38
2022-08-09T18:05:57.476Z,30.21
2022-08-09T18:08:28.191Z,29.97
2022-08-09T18:11:01.801Z,30.02
2022-08-09T18:13:43.477Z,29.82
2022-08-09T18:16:29.049Z,29.76
2022-08-09T18:18:57.467Z,29.60
2022-08-09T18:21:26.660Z,29.45
2022-08-09T18:26:46.902Z,29.30
2022-08-09T18:30:36.401Z,29.27
2022-08-09T18:32:03.807Z,29.36
2022-08-09T18:34:35.193Z,29.27
2022-08-09T18:37:03.864Z,29.23
2022-08-09T18:39:32.269Z,29.11
2022-08-09T18:42:05.318Z,29.02
2022-08-09T18:44:35.988Z,28.98
2022-08-09T18:47:08.074Z,28.93
2022-08-09T18:49:43.020Z,28.98
2022-08-09T18:52:16.015Z,28.89
2022-08-09T18:54:49.625Z,28.89
2022-08-09T18:57:21.907Z,28.95
2022-08-09T18:59:57.610Z,28.91
2022-08-09T19:02:30.749Z,28.91
2022-08-09T19:05:03.873Z,28.77
2022-08-09T19:07:59.191Z,28.78
2022-08-09T19:10:37.426Z,28.88
2022-08-09T19:13:22.811Z,28.82
2022-08-09T19:15:57.109Z,28.80
2022-08-09T19:18:33.326Z,28.64
2022-08-09T19:21:05.235Z,28.60
2022-08-09T19:24:37.924Z,28.59
2022-08-09T19:26:29.134Z,28.61
2022-08-09T19:29:01.486Z,28.50
2022-08-09T19:31:30.385Z,28.48
2022-08-09T19:33:58.134Z,28.47
2022-08-09T19:36:30.798Z,28.36
2022-08-09T19:39:03.546Z,28.49
2022-08-09T19:41:35.668Z,28.46
2022-08-09T19:44:03.575Z,28.47
2022-08-09T19:46:35.763Z,28.50
2022-08-09T19:50:07.499Z,28.51
2022-08-09T19:52:05.481Z,28.52
2022-08-09T19:54:32.645Z,28.46
2022-08-09T19:56:59.833Z,28.45
2022-08-09T19:59:57.415Z,28.46
2022-08-09T20:04:08.156Z,28.48
2022-08-09T20:05:11.579Z,28.38
2022-08-09T20:07:58.956Z,28.29
2022-08-09T20:10:36.320Z,28.28
2022-08-09T20:13:05.538Z,28.25
2022-08-09T20:16:34.393Z,28.18
2022-08-09T20:18:22.430Z,28.21
2022-08-09T20:20:51.376Z,28.20
2022-08-09T20:23:23.068Z,28.05
2022-08-09T20:25:53.542Z,27.99
2022-08-09T20:28:27.788Z,28.12
2022-08-09T20:31:05.226Z,27.98
2022-08-09T20:33:39.118Z,27.91
2022-08-09T20:36:08.708Z,27.92
2022-08-09T20:39:02.939Z,27.91
2022-08-09T20:41:34.691Z,27.97
2022-08-09T20:44:03.565Z,27.96
2022-08-09T20:46:43.275Z,27.90
2022-08-09T20:49:12.996Z,27.81
2022-08-09T20:51:42.140Z,27.72
2022-08-09T20:54:16.463Z,27.59
2022-08-09T20:56:47.119Z,27.67
2022-08-09T20:59:17.583Z,27.58
2022-08-09T21:01:53.651Z,27.49
2022-08-09T21:05:54.349Z,27.48
2022-08-09T21:07:12.873Z,27.37
2022-08-09T21:09:45.610Z,27.41
2022-08-09T21:14:48.166Z,27.37
2022-08-09T21:18:23.693Z,27.29
2022-08-09T21:20:19.174Z,27.34
2022-08-09T21:22:53.891Z,27.19
2022-08-09T21:25:44.430Z,27.29
2022-08-09T21:28:35.057Z,27.16
2022-08-09T21:31:16.563Z,27.36
2022-08-09T21:33:50.669Z,27.25
2022-08-09T21:36:23.139Z,27.20
2022-08-09T21:38:58.087Z,27.18
2022-08-09T21:42:04.927Z,27.25
2022-08-09T21:44:15.387Z,27.27
2022-08-09T21:47:01.690Z,27.28
2022-08-09T21:49:39.553Z,27.24
2022-08-09T21:52:14.791Z,27.22
2022-08-09T21:55:03.132Z,27.25
2022-08-09T21:57:39.586Z,27.23
2022-08-09T22:00:26.855Z,27.13
2022-08-09T22:03:06.913Z,27.09
2022-08-09T22:05:37.563Z,27.12
2022-08-09T22:08:13.682Z,27.07
2022-08-09T22:11:00.476Z,26.98
2022-08-09T22:13:34.841Z,27.02
2022-08-09T22:16:04.204Z,27.10
2022-08-09T22:18:32.993Z,27.06
2022-08-09T22:21:01.044Z,26.99
2022-08-09T22:23:35.114Z,27.13
2022-08-09T22:26:08.196Z,27.11
2022-08-09T22:28:36.889Z,26.95
2022-08-09T22:31:14.448Z,26.88
2022-08-09T22:33:49.124Z,26.93
2022-08-09T22:36:22.942Z,26.95
2022-08-09T22:38:50.822Z,26.96
2022-08-09T22:41:19.282Z,26.93
2022-08-09T22:44:01.782Z,26.93
2022-08-09T22:48:18.808Z,26.83
2022-08-09T22:49:20.457Z,26.90
2022-08-09T22:51:57.508Z,26.92
2022-08-09T22:54:27.133Z,27.05
2022-08-09T22:56:56.886Z,26.86
2022-08-09T22:59:57.188Z,26.60
2022-08-09T23:02:15.179Z,26.54
2022-08-09T23:04:54.027Z,26.51
2022-08-09T23:08:22.030Z,26.35
2022-08-09T23:10:28.806Z,26.26
2022-08-09T23:12:56.178Z,26.25
2022-08-09T23:15:23.474Z,26.31
2022-08-09T23:17:50.581Z,26.26
2022-08-09T23:20:17.724Z,26.16
2022-08-09T23:22:44.915Z,26.23
2022-08-09T23:25:12.032Z,26.16
2022-08-09T23:27:59.661Z,26.08
2022-08-09T23:30:26.294Z,26.14
2022-08-09T23:32:53.448Z,26.21
2022-08-09T23:35:20.665Z,26.20
2022-08-09T23:37:47.802Z,26.23
2022-08-09T23:40:33.397Z,26.30
2022-08-09T23:43:00.546Z,26.38
2022-08-09T23:45:36.387Z,26.40
2022-08-09T23:48:08.714Z,26.42
2022-08-09T23:50:36.442Z,26.38
2022-08-09T23:53:03.789Z,26.37
2022-08-09T23:55:33.070Z,26.28
2022-08-09T23:58:07.950Z,26.19
